Time;durP1;ratioP1;P1;durP2;ratioP2;P2;SDS_P1;SDS_P2;PMS_P1;PMS_P2;Temp;Humidity;BMP_temperature;BMP_pressure;BME280_temperature;BME280_humidity;BME280_pressure;Samples;Min_cycle;Max_cycle;Signal;HPM_P1;HPM_P2
2024/02/03 00:00:48;271446.00;0.90;468.83;0.00;0.00;0.62;;;;;10.50;1.00;;;;;;2265669;61;1311;-88
2024/02/03 00:08:14;228001.00;0.76;394.11;0.00;0.00;0.62;;;;;11.10;1.00;;;;;;2287938;55;3692;-88
2024/02/03 00:10:41;47274.00;0.16;82.47;0.00;0.00;0.62;;;;;11.60;1.00;;;;;;2272071;61;1540;-86
2024/02/03 00:15:38;161355.00;0.54;279.37;0.00;0.00;0.62;;;;;11.40;1.00;;;;;;2261675;61;1924;-90
2024/02/03 00:18:05;75943.00;0.25;132.03;0.00;0.00;0.62;;;;;10.90;1.00;;;;;;2270354;40;3578;-87
2024/02/03 00:20:32;45012.00;0.15;78.56;0.00;0.00;0.62;;;;;10.90;1.00;;;;;;2272153;61;1123;-88
2024/02/03 00:22:59;16949.00;0.06;29.99;0.00;0.00;0.62;;;;;10.80;1.00;;;;;;2272169;61;1241;-88
2024/02/03 00:28:01;164473.00;0.55;284.75;0.00;0.00;0.62;;;;;10.90;1.00;;;;;;2261414;61;1308;-88
2024/02/03 00:30:28;94517.00;0.32;164.11;0.00;0.00;0.62;;;;;11.00;1.00;;;;;;2260095;61;1057;-88
2024/02/03 00:32:55;29294.00;0.10;51.36;0.00;0.00;0.62;;;;;11.20;1.00;;;;;;2259984;61;1611;-87
2024/02/03 00:35:22;236427.00;0.79;408.61;55290.00;0.18;96.33;;;;;11.60;1.00;;;;;;2287074;55;3721;-89
2024/02/03 00:45:21;158803.00;0.53;274.98;0.00;0.00;0.62;;;;;11.70;1.00;;;;;;2290198;40;3496;-87
2024/02/03 00:47:49;73067.00;0.24;127.06;0.00;0.00;0.62;;;;;11.30;1.00;;;;;;2271954;61;1545;-87
2024/02/03 00:52:46;202590.00;0.68;350.38;0.00;0.00;0.62;;;;;10.80;1.00;;;;;;2279884;56;3632;-87
2024/02/03 01:00:13;198753.00;0.66;343.78;0.00;0.00;0.62;;;;;11.40;1.00;;;;;;2269723;61;1179;-87
2024/02/03 01:02:42;594.00;0.00;1.65;0.00;0.00;0.62;;;;;11.60;1.00;;;;;;2267906;61;1534;-87
2024/02/03 01:07:36;451275.00;1.50;777.98;60671.00;0.20;105.64;;;;;11.60;1.00;;;;;;2265429;61;1364;-87
2024/02/03 01:10:06;139637.00;0.47;241.95;0.00;0.00;0.62;;;;;11.40;1.00;;;;;;2335885;40;3567;-87
2024/02/03 01:12:33;189401.00;0.63;327.68;0.00;0.00;0.62;;;;;11.20;1.00;;;;;;2277315;56;3794;-86
2024/02/03 01:15:00;45914.00;0.15;80.12;0.00;0.00;0.62;;;;;11.10;1.00;;;;;;2278084;55;3779;-87
2024/02/03 01:17:28;29476.00;0.10;51.68;0.00;0.00;0.62;;;;;11.20;1.00;;;;;;2271787;61;1015;-90
2024/02/03 01:22:29;146222.00;0.49;253.30;0.00;0.00;0.62;;;;;11.00;1.00;;;;;;2265880;55;3721;-88
2024/02/03 01:24:56;0.00;0.00;0.62;0.00;0.00;0.62;;;;;11.00;1.00;;;;;;2271879;61;1095;-88
2024/02/03 01:27:22;50388.00;0.17;87.86;0.00;0.00;0.62;;;;;11.30;1.00;;;;;;2290852;41;3776;-90
2024/02/03 01:29:49;66404.00;0.22;115.55;0.00;0.00;0.62;;;;;11.20;1.00;;;;;;2272607;61;2038;-86
2024/02/03 01:32:16;17007.00;0.06;30.09;0.00;0.00;0.62;;;;;10.80;1.00;;;;;;2274054;55;3774;-89
2024/02/03 01:34:43;39485.00;0.13;69.00;0.00;0.00;0.62;;;;;10.30;1.00;;;;;;2272617;61;1986;-88
2024/02/03 01:37:10;36747.00;0.12;64.26;0.00;0.00;0.62;;;;;10.20;1.00;;;;;;2272726;61;809;-88
2024/02/03 01:39:38;25859.00;0.09;45.41;0.00;0.00;0.62;;;;;10.10;1.00;;;;;;2271785;61;1825;-87
2024/02/03 01:42:06;6511.00;0.02;11.90;0.00;0.00;0.62;;;;;9.80;1.00;;;;;;2271888;61;1265;-88
2024/02/03 01:44:33;43814.00;0.15;76.49;0.00;0.00;0.62;;;;;9.90;1.00;;;;;;2272410;61;1039;-89
2024/02/03 01:47:00;10399.00;0.03;18.64;0.00;0.00;0.62;;;;;10.00;1.00;;;;;;2272599;61;1595;-87
2024/02/03 01:49:28;20552.00;0.07;36.23;0.00;0.00;0.62;;;;;9.90;1.00;;;;;;2272687;61;2348;-89
2024/02/03 01:51:56;46047.00;0.15;80.35;0.00;0.00;0.62;;;;;9.80;1.00;;;;;;2274240;40;3589;-89
2024/02/03 01:54:23;79698.00;0.27;138.52;0.00;0.00;0.62;;;;;9.80;1.00;;;;;;2272507;61;2008;-87
2024/02/03 01:56:58;101872.00;0.34;176.80;0.00;0.00;0.62;;;;;9.80;1.00;;;;;;2272257;61;2326;-88
2024/02/03 02:01:56;125666.00;0.42;217.86;0.00;0.00;0.62;;;;;9.60;1.00;;;;;;2266374;61;1302;-90
2024/02/03 02:09:37;410449.00;1.37;707.77;92665.00;0.31;160.91;;;;;9.70;1.00;;;;;;2277122;40;3542;-87
2024/02/03 02:12:08;476566.00;1.59;821.49;106327.00;0.35;184.49;;;;;9.60;1.00;;;;;;2276154;56;3781;-87
2024/02/03 02:14:36;300878.00;1.00;519.43;83602.00;0.28;145.26;;;;;9.40;1.00;;;;;;2268400;61;1998;-88
2024/02/03 02:17:04;249149.00;0.83;430.49;94313.00;0.31;163.75;;;;;9.40;1.00;;;;;;2268486;61;1028;-88
2024/02/03 02:22:08;560067.00;1.87;965.32;94110.00;0.31;163.40;;;;;9.40;1.00;;;;;;2189192;60;1765;-87
2024/02/03 02:24:35;528458.00;1.76;910.84;116304.00;0.39;201.71;;;;;9.50;1.00;;;;;;2278533;40;3551;-89
2024/02/03 02:30:24;76060.00;0.25;132.23;0.00;0.00;0.62;;;;;9.70;1.00;;;;;;2278751;55;3777;-89
2024/02/03 02:32:51;590325.00;1.97;1017.52;92872.00;0.31;161.27;;;;;9.50;1.00;;;;;;2272396;61;1693;-87
2024/02/03 02:35:18;457328.00;1.52;788.39;91916.00;0.31;159.62;;;;;9.80;1.00;;;;;;2272523;61;2006;-87
2024/02/03 02:37:46;391565.00;1.31;675.30;93734.00;0.31;162.75;;;;;10.00;1.00;;;;;;2291224;40;3649;-87
2024/02/03 02:42:42;595115.00;1.98;1025.79;77205.00;0.26;134.21;;;;;9.90;1.00;;;;;;2261769;61;1394;-87
2024/02/03 02:45:10;511406.00;1.70;881.46;99390.00;0.33;172.52;;;;;9.80;1.00;;;;;;2260437;61;1120;-88
2024/02/03 02:50:09;975306.00;3.25;1688.78;88789.00;0.30;154.22;;;;;9.80;1.00;;;;;;2274166;61;1430;-87
2024/02/03 02:52:37;611739.00;2.04;1054.49;96317.00;0.32;167.21;;;;;9.90;1.00;;;;;;2272320;61;2061;-91
2024/02/03 02:55:06;704517.00;2.35;1215.07;73585.00;0.25;127.95;;;;;9.70;1.00;;;;;;2272097;61;1919;-88
2024/02/03 02:57:33;675622.00;2.25;1164.99;98271.00;0.33;170.59;;;;;9.70;1.00;;;;;;2279810;56;3718;-88
2024/02/03 03:00:00;590407.00;1.97;1017.66;139575.00;0.47;241.84;;;;;9.70;1.00;;;;;;2272401;61;906;-89
2024/02/03 03:02:27;697854.00;2.33;1203.52;95514.00;0.32;165.83;;;;;9.70;1.00;;;;;;2272454;61;1377;-88
2024/02/03 03:04:53;506823.00;1.69;873.57;96682.00;0.32;167.84;;;;;9.90;1.00;;;;;;2272470;61;1034;-87
2024/02/03 03:07:23;559431.00;1.86;964.22;88446.00;0.29;153.62;;;;;9.90;1.00;;;;;;2279333;41;3618;-88
2024/02/03 03:09:50;677497.00;2.26;1168.24;92668.00;0.31;160.91;;;;;9.90;1.00;;;;;;2272374;61;1180;-86
2024/02/03 03:12:19;633990.00;2.11;1092.95;86738.00;0.29;150.67;;;;;9.70;1.00;;;;;;2272219;61;1250;-87
2024/02/03 03:17:29;298449.00;0.99;515.25;0.00;0.00;0.62;;;;;9.80;1.00;;;;;;2272115;61;1756;-88
2024/02/03 03:19:56;309679.00;1.03;534.56;0.00;0.00;0.62;;;;;9.70;1.00;;;;;;2272279;61;1251;-87
2024/02/03 03:22:23;363206.00;1.21;626.56;0.00;0.00;0.62;;;;;9.70;1.00;;;;;;2272177;55;3714;-88
2024/02/03 03:24:50;238231.00;0.79;411.71;0.00;0.00;0.62;;;;;9.80;1.00;;;;;;2272334;61;1073;-88
2024/02/03 03:27:18;321348.00;1.07;554.62;0.00;0.00;0.62;;;;;10.00;1.00;;;;;;2272332;61;971;-88
2024/02/03 03:29:47;444107.00;1.48;765.65;0.00;0.00;0.62;;;;;10.10;1.00;;;;;;2272161;61;1704;-87
2024/02/03 03:32:14;350612.00;1.17;604.91;0.00;0.00;0.62;;;;;10.00;1.00;;;;;;2272231;61;1369;-87
2024/02/03 03:34:41;254750.00;0.85;440.12;222.00;0.00;1.00;;;;;10.10;1.00;;;;;;2272271;61;1998;-88
2024/02/03 03:37:08;249741.00;0.83;431.51;0.00;0.00;0.62;;;;;10.40;1.00;;;;;;2272322;61;2209;-86
2024/02/03 03:39:35;217209.00;0.72;375.54;0.00;0.00;0.62;;;;;10.50;1.00;;;;;;2272228;61;1009;-87
2024/02/03 03:47:00;231902.00;0.77;400.82;0.00;0.00;0.62;;;;;11.20;1.00;;;;;;2262024;61;1345;-87
2024/02/03 03:49:31;257898.00;0.86;445.53;0.00;0.00;0.62;;;;;11.30;1.00;;;;;;2260155;61;965;-88
2024/02/03 03:51:59;40509.00;0.14;70.77;0.00;0.00;0.62;;;;;11.70;1.00;;;;;;2260323;61;1329;-90
2024/02/03 03:54:26;120934.00;0.40;209.69;0.00;0.00;0.62;;;;;11.90;1.00;;;;;;2260147;61;1586;-87
2024/02/03 03:56:53;181060.00;0.60;313.32;0.00;0.00;0.62;;;;;12.00;1.00;;;;;;2260194;61;1924;-87
2024/02/03 03:59:20;134022.00;0.45;232.26;0.00;0.00;0.62;;;;;12.00;1.00;;;;;;2260060;61;971;-88
2024/02/03 04:01:48;30700.00;0.10;53.79;0.00;0.00;0.62;;;;;12.00;1.00;;;;;;2260081;61;2217;-89
2024/02/03 04:04:17;136913.00;0.46;237.25;0.00;0.00;0.62;;;;;12.00;1.00;;;;;;2260197;61;1076;-88
2024/02/03 04:06:44;40085.00;0.13;70.04;0.00;0.00;0.62;;;;;12.00;1.00;;;;;;2260064;61;968;-87
2024/02/03 04:09:11;180220.00;0.60;311.87;0.00;0.00;0.62;;;;;11.80;1.00;;;;;;2329607;40;3651;-88
2024/02/03 04:11:38;54300.00;0.18;94.62;0.00;0.00;0.62;;;;;11.30;1.00;;;;;;2272043;61;1651;-87
2024/02/03 04:14:05;178969.00;0.60;309.71;0.00;0.00;0.62;;;;;11.20;1.00;;;;;;2272259;61;1819;-88
2024/02/03 04:16:32;110293.00;0.37;191.34;0.00;0.00;0.62;;;;;11.10;1.00;;;;;;2272193;61;1930;-88
2024/02/03 04:19:00;310369.00;1.03;535.74;0.00;0.00;0.62;;;;;11.10;1.00;;;;;;2272024;61;1678;-87
2024/02/03 04:21:28;206627.00;0.69;357.33;0.00;0.00;0.62;;;;;10.90;1.00;;;;;;2272210;61;1087;-88
2024/02/03 04:26:25;72998.00;0.24;126.94;0.00;0.00;0.62;;;;;10.70;1.00;;;;;;2261679;61;1333;-88
2024/02/03 04:28:51;169042.00;0.56;292.62;0.00;0.00;0.62;;;;;10.60;1.00;;;;;;2260100;61;1739;-87
2024/02/03 04:31:20;41113.00;0.14;71.81;0.00;0.00;0.62;;;;;10.80;1.00;;;;;;2260019;61;1517;-87
2024/02/03 04:33:47;18866.00;0.06;33.31;0.00;0.00;0.62;;;;;11.00;1.00;;;;;;2259968;61;1584;-86
2024/02/03 04:36:14;69744.00;0.23;121.32;0.00;0.00;0.62;;;;;10.90;1.00;;;;;;2259946;61;2012;-88
2024/02/03 04:38:42;0.00;0.00;0.62;0.00;0.00;0.62;;;;;11.00;1.00;;;;;;2259981;61;2324;-88
2024/02/03 04:41:09;48122.00;0.16;83.94;0.00;0.00;0.62;;;;;10.90;1.00;;;;;;2259891;61;1556;-87
2024/02/03 04:43:36;34016.00;0.11;59.53;0.00;0.00;0.62;;;;;10.70;1.00;;;;;;2259992;61;1301;-86
2024/02/03 04:46:03;68983.00;0.23;120.00;0.00;0.00;0.62;;;;;10.60;1.00;;;;;;2259942;61;1590;-87
2024/02/03 04:48:30;0.00;0.00;0.62;0.00;0.00;0.62;;;;;10.60;1.00;;;;;;2259956;61;1026;-88
2024/02/03 04:50:56;0.00;0.00;0.62;0.00;0.00;0.62;;;;;10.70;1.00;;;;;;2292624;41;3636;-88
2024/02/03 04:53:23;13220.00;0.04;23.53;0.00;0.00;0.62;;;;;10.80;1.00;;;;;;2272035;61;1372;-87
2024/02/03 04:55:52;37853.00;0.13;66.17;0.00;0.00;0.62;;;;;10.80;1.00;;;;;;2272054;61;2006;-89
2024/02/03 04:58:19;38843.00;0.13;67.89;0.00;0.00;0.62;;;;;10.90;1.00;;;;;;2272134;61;1114;-87
2024/02/03 05:00:46;7317.00;0.02;13.30;0.00;0.00;0.62;;;;;11.10;1.00;;;;;;2271963;61;1116;-89
2024/02/03 05:03:13;24950.00;0.08;43.84;0.00;0.00;0.62;;;;;11.30;1.00;;;;;;2272000;61;1343;-88
2024/02/03 05:05:40;7586.00;0.03;13.77;0.00;0.00;0.62;;;;;11.20;1.00;;;;;;2271953;61;1074;-87
2024/02/03 05:08:07;130741.00;0.44;226.61;33994.00;0.11;59.50;;;;;11.10;1.00;;;;;;2292528;55;3790;-88
2024/02/03 05:10:34;139024.00;0.46;240.89;0.00;0.00;0.62;;;;;11.20;1.00;;;;;;2272104;61;823;-86
2024/02/03 05:13:02;40570.00;0.14;70.87;0.00;0.00;0.62;;;;;11.20;1.00;;;;;;2271970;61;1697;-87
2024/02/03 05:15:29;22164.00;0.07;39.02;0.00;0.00;0.62;;;;;11.20;1.00;;;;;;2272015;61;1915;-86
2024/02/03 05:17:56;0.00;0.00;0.62;0.00;0.00;0.62;;;;;11.00;1.00;;;;;;2272046;61;1020;-87
2024/02/03 05:20:23;30450.00;0.10;53.36;0.00;0.00;0.62;;;;;10.80;1.00;;;;;;2272627;61;1021;-87
2024/02/03 05:22:50;175210.00;0.58;303.24;0.00;0.00;0.62;;;;;10.70;1.00;;;;;;2272694;61;1251;-89
2024/02/03 05:25:17;35743.00;0.12;62.52;0.00;0.00;0.62;;;;;10.70;1.00;;;;;;2272551;61;2181;-88
2024/02/03 05:27:44;0.00;0.00;0.62;0.00;0.00;0.62;;;;;10.80;1.00;;;;;;2272761;61;926;-87
2024/02/03 05:30:13;201607.00;0.67;348.69;0.00;0.00;0.62;;;;;11.00;1.00;;;;;;2272626;61;991;-86
2024/02/03 05:32:41;75419.00;0.25;131.12;0.00;0.00;0.62;;;;;10.80;1.00;;;;;;2272697;61;1261;-88
2024/02/03 05:37:43;69086.00;0.23;120.18;0.00;0.00;0.62;;;;;10.40;1.00;;;;;;1853028;40;3209;-88
2024/02/03 05:40:10;148.00;0.00;0.88;0.00;0.00;0.62;;;;;10.60;1.00;;;;;;2273378;61;1208;-89
2024/02/03 05:42:37;14110.00;0.05;25.07;0.00;0.00;0.62;;;;;10.80;1.00;;;;;;2273328;61;1578;-88
2024/02/03 05:45:05;23508.00;0.08;41.34;0.00;0.00;0.62;;;;;11.10;1.00;;;;;;2273342;61;1592;-87
2024/02/03 05:47:33;0.00;0.00;0.62;0.00;0.00;0.62;;;;;11.20;1.00;;;;;;2273320;61;1208;-89
2024/02/03 05:50:00;27351.00;0.09;48.00;0.00;0.00;0.62;;;;;11.10;1.00;;;;;;2272537;61;1757;-88
2024/02/03 05:52:27;13706.00;0.05;24.37;0.00;0.00;0.62;;;;;10.80;1.00;;;;;;2272471;61;1764;-88
2024/02/03 05:54:54;121875.00;0.41;211.32;22088.00;0.07;38.89;;;;;10.60;1.00;;;;;;2272657;61;1139;-89
2024/02/03 05:57:21;79498.00;0.26;138.17;0.00;0.00;0.62;;;;;10.60;1.00;;;;;;2272500;61;2017;-91
2024/02/03 05:59:48;40483.00;0.13;70.72;0.00;0.00;0.62;;;;;10.50;1.00;;;;;;2272699;61;1548;-88
2024/02/03 06:04:48;227162.00;0.76;392.67;0.00;0.00;0.62;;;;;10.50;1.00;;;;;;2270543;61;1304;-87
2024/02/03 06:07:16;94448.00;0.31;163.99;21897.00;0.07;38.55;;;;;10.70;1.00;;;;;;2268605;61;1062;-87
2024/02/03 06:09:42;38986.00;0.13;68.13;0.00;0.00;0.62;;;;;11.40;1.00;;;;;;2268464;61;1110;-88
2024/02/03 06:12:09;49307.00;0.16;85.99;0.00;0.00;0.62;;;;;11.70;1.00;;;;;;2268548;61;1359;-88
2024/02/03 06:14:40;39752.00;0.13;69.46;0.00;0.00;0.62;;;;;12.10;1.00;;;;;;2268584;61;1044;-88
2024/02/03 06:17:07;36223.00;0.12;63.35;0.00;0.00;0.62;;;;;12.60;1.00;;;;;;2279833;56;3753;-87
2024/02/03 06:19:34;53609.00;0.18;93.43;0.00;0.00;0.62;;;;;12.90;1.00;;;;;;2309207;41;1088995;-89
2024/02/03 06:29:35;93775.00;0.31;162.83;0.00;0.00;0.62;;;;;12.00;1.00;;;;;;2265945;61;1403;-87
2024/02/03 06:32:02;115700.00;0.39;200.66;0.00;0.00;0.62;;;;;12.10;1.00;;;;;;2264368;61;1286;-90
2024/02/03 06:34:28;4596.00;0.02;8.59;0.00;0.00;0.62;;;;;11.70;1.00;;;;;;2264323;61;1708;-87
2024/02/03 06:44:50;217032.00;0.72;375.24;0.00;0.00;0.62;;;;;11.90;1.00;;;;;;2297841;40;3482;-86
2024/02/03 06:47:16;348520.00;1.16;601.32;0.00;0.00;0.62;;;;;11.80;1.00;;;;;;2274944;56;3867;-87
2024/02/03 06:52:17;247673.00;0.83;427.95;61277.00;0.20;106.68;;;;;12.20;1.00;;;;;;2266294;61;1664;-88
2024/02/03 06:59:49;135392.00;0.45;234.63;0.00;0.00;0.62;;;;;12.40;1.00;;;;;;2266667;61;1314;-90
2024/02/03 07:04:50;139107.00;0.46;241.03;0.00;0.00;0.62;;;;;11.20;1.00;;;;;;2266371;61;1382;-90
2024/02/03 07:17:14;82396.00;0.27;143.18;0.00;0.00;0.62;;;;;12.80;1.00;;;;;;2270113;61;1903;-87
2024/02/03 07:19:41;114592.00;0.38;198.75;0.00;0.00;0.62;;;;;12.60;1.00;;;;;;2268494;61;1041;-89
2024/02/03 07:22:08;28772.00;0.10;50.46;0.00;0.00;0.62;;;;;12.70;1.00;;;;;;2268384;61;1270;-90
2024/02/03 07:24:38;43610.00;0.15;76.13;0.00;0.00;0.62;;;;;12.40;1.00;;;;;;2268410;61;2441;-87
2024/02/03 07:27:05;95789.00;0.32;166.30;0.00;0.00;0.62;;;;;11.50;1.00;;;;;;2268414;61;2121;-87
2024/02/03 07:29:32;31863.00;0.11;55.81;0.00;0.00;0.62;;;;;11.50;1.00;;;;;;2268285;61;1076;-87
2024/02/03 07:32:02;120964.00;0.40;209.75;0.00;0.00;0.62;;;;;11.20;1.00;;;;;;2268310;61;1305;-87
2024/02/03 07:34:30;72166.00;0.24;125.50;0.00;0.00;0.62;;;;;11.70;1.00;;;;;;2268419;61;1095;-88
2024/02/03 07:36:57;80055.00;0.27;139.13;0.00;0.00;0.62;;;;;12.20;1.00;;;;;;2268260;61;1924;-87
2024/02/03 07:39:24;43171.00;0.14;75.37;0.00;0.00;0.62;;;;;12.00;1.00;;;;;;2268357;61;1088;-89
2024/02/03 07:41:51;21321.00;0.07;37.56;0.00;0.00;0.62;;;;;12.30;1.00;;;;;;2268195;61;1407;-88
2024/02/03 07:44:18;39108.00;0.13;68.35;0.00;0.00;0.62;;;;;12.30;1.00;;;;;;2268404;61;957;-89
2024/02/03 07:46:44;14731.00;0.05;26.14;0.00;0.00;0.62;;;;;12.70;1.00;;;;;;2268202;61;1096;-89
2024/02/03 07:49:11;66291.00;0.22;115.35;0.00;0.00;0.62;;;;;12.30;1.00;;;;;;2268228;61;933;-88
2024/02/03 07:51:40;35798.00;0.12;62.62;0.00;0.00;0.62;;;;;12.60;1.00;;;;;;2268134;61;1307;-87
2024/02/03 07:54:06;107712.00;0.36;186.88;0.00;0.00;0.62;;;;;11.70;1.00;;;;;;2268172;61;1680;-88
2024/02/03 07:56:33;50395.00;0.17;87.87;0.00;0.00;0.62;;;;;11.70;1.00;;;;;;2268258;61;2014;-88
2024/02/03 07:59:00;70483.00;0.23;122.60;0.00;0.00;0.62;;;;;11.90;1.00;;;;;;2268206;61;1028;-88
2024/02/03 08:01:27;253053.00;0.84;437.20;17334.00;0.06;30.65;;;;;11.50;1.00;;;;;;2268261;61;1016;-85
2024/02/03 08:06:23;170457.00;0.57;295.05;0.00;0.00;0.62;;;;;11.00;1.00;;;;;;2270078;61;1357;-88
2024/02/03 08:08:52;99448.00;0.33;172.62;0.00;0.00;0.62;;;;;11.20;1.00;;;;;;2268148;61;1383;-86
2024/02/03 08:11:20;88387.00;0.29;153.52;0.00;0.00;0.62;;;;;11.60;1.00;;;;;;2268189;61;1798;-88
2024/02/03 08:13:46;15888.00;0.05;28.15;0.00;0.00;0.62;;;;;12.10;1.00;;;;;;2268214;61;1401;-88
2024/02/03 08:16:13;29637.00;0.10;51.95;0.00;0.00;0.62;;;;;12.50;1.00;;;;;;2268260;61;1997;-87
2024/02/03 08:18:42;94307.00;0.31;163.74;0.00;0.00;0.62;;;;;12.60;1.00;;;;;;2268134;61;1007;-89
2024/02/03 08:21:09;34188.00;0.11;59.83;0.00;0.00;0.62;;;;;12.80;1.00;;;;;;2268250;61;1021;-88
2024/02/03 08:23:35;146044.00;0.49;252.99;0.00;0.00;0.62;;;;;13.00;1.00;;;;;;2268102;61;1543;-87
2024/02/03 08:26:04;87706.00;0.29;152.35;0.00;0.00;0.62;;;;;12.90;1.00;;;;;;2268181;61;964;-88
2024/02/03 08:28:31;13163.00;0.04;23.43;0.00;0.00;0.62;;;;;13.00;1.00;;;;;;2268198;61;1006;-88
2024/02/03 08:30:58;152594.00;0.51;264.28;0.00;0.00;0.62;;;;;13.10;1.00;;;;;;2268236;61;1115;-88
2024/02/03 08:33:25;6690.00;0.02;12.21;0.00;0.00;0.62;;;;;13.30;1.00;;;;;;2268060;61;1730;-88
2024/02/03 08:35:52;0.00;0.00;0.62;0.00;0.00;0.62;;;;;13.10;1.00;;;;;;2268117;61;2210;-90
2024/02/03 08:38:19;80277.00;0.27;139.52;0.00;0.00;0.62;;;;;13.10;1.00;;;;;;2268116;61;1072;-89
2024/02/03 08:40:46;22320.00;0.07;39.29;0.00;0.00;0.62;;;;;13.00;1.00;;;;;;2268241;61;1106;-88
2024/02/03 08:43:14;149652.00;0.50;259.21;32171.00;0.11;56.34;;;;;12.50;1.00;;;;;;2268126;61;1567;-87
2024/02/03 08:45:42;112269.00;0.37;194.75;31273.00;0.10;54.79;;;;;12.30;1.00;;;;;;2268037;61;1546;-89
2024/02/03 08:48:09;103182.00;0.34;179.06;0.00;0.00;0.62;;;;;12.40;1.00;;;;;;2268026;61;1545;-87
2024/02/03 08:50:36;112358.00;0.37;194.90;0.00;0.00;0.62;;;;;12.80;1.00;;;;;;2268225;61;1049;-88
2024/02/03 08:53:03;9353.00;0.03;16.83;0.00;0.00;0.62;;;;;12.70;1.00;;;;;;2268141;61;1264;-86
2024/02/03 08:55:30;0.00;0.00;0.62;0.00;0.00;0.62;;;;;12.40;1.00;;;;;;2268102;61;1135;-86
2024/02/03 08:57:57;353324.00;1.18;609.57;74700.00;0.25;129.88;;;;;12.10;1.00;;;;;;2268006;61;1932;-88
2024/02/03 09:00:25;12583.00;0.04;22.42;0.00;0.00;0.62;;;;;12.10;1.00;;;;;;2268105;61;1009;-88
2024/02/03 09:02:52;230755.00;0.77;398.85;72061.00;0.24;125.32;;;;;12.10;1.00;;;;;;2268048;61;1378;-88
2024/02/03 09:05:19;34274.00;0.11;59.98;0.00;0.00;0.62;;;;;12.30;1.00;;;;;;2268085;61;2086;-86
2024/02/03 09:07:46;98593.00;0.33;171.14;15993.00;0.05;28.33;;;;;12.30;1.00;;;;;;2268121;61;1693;-89
2024/02/03 09:10:13;11201.00;0.04;20.03;0.00;0.00;0.62;;;;;12.20;1.00;;;;;;2268063;61;1041;-87
2024/02/03 09:12:40;40858.00;0.14;71.37;0.00;0.00;0.62;;;;;12.20;1.00;;;;;;2268111;61;1297;-86
2024/02/03 09:15:07;6069.00;0.02;11.14;0.00;0.00;0.62;;;;;12.00;1.00;;;;;;2268033;61;1080;-87
2024/02/03 09:17:35;62927.00;0.21;109.54;0.00;0.00;0.62;;;;;12.20;1.00;;;;;;2268140;61;2003;-88
2024/02/03 09:20:03;125245.00;0.42;217.13;0.00;0.00;0.62;;;;;12.40;1.00;;;;;;2268085;61;1548;-88
2024/02/03 09:22:30;183872.00;0.61;318.16;26057.00;0.09;45.76;;;;;12.50;1.00;;;;;;2268094;61;1377;-87
2024/02/03 09:24:57;0.00;0.00;0.62;0.00;0.00;0.62;;;;;12.10;1.00;;;;;;2267976;61;1676;-88
2024/02/03 09:27:24;0.00;0.00;0.62;0.00;0.00;0.62;;;;;11.80;1.00;;;;;;2268073;61;990;-89
2024/02/03 09:29:51;29915.00;0.10;52.44;0.00;0.00;0.62;;;;;12.00;1.00;;;;;;2268082;61;1023;-88
2024/02/03 09:32:18;0.00;0.00;0.62;0.00;0.00;0.62;;;;;12.20;1.00;;;;;;2267994;61;1695;-87
2024/02/03 09:34:49;101322.00;0.34;175.85;13256.00;0.04;23.59;;;;;12.20;1.00;;;;;;2271560;61;1430;-88
2024/02/03 09:39:44;118180224.00;393.93;66860672.00;93655.00;0.31;162.62;;;;;12.20;1.00;;;;;;2273576;61;1402;-88
2024/02/03 09:42:11;176567.00;0.59;305.58;92453.00;0.31;160.54;;;;;12.30;1.00;;;;;;2271877;61;1680;-89
2024/02/03 09:44:38;191373.00;0.64;331.07;101055.00;0.34;175.39;;;;;12.70;1.00;;;;;;2272289;61;1639;-93
2024/02/03 09:49:34;342136.00;1.14;590.34;85542.00;0.29;148.61;;;;;12.60;1.00;;;;;;2270235;61;1431;-88
2024/02/03 09:52:04;182695.00;0.61;316.13;89772.00;0.30;155.91;;;;;12.70;1.00;;;;;;2268024;61;1381;-88
2024/02/03 09:54:31;304253.00;1.01;525.23;122990.00;0.41;213.24;;;;;12.90;1.00;;;;;;2268298;61;997;-87
2024/02/03 09:56:58;187516.00;0.63;324.43;90446.00;0.30;157.08;;;;;13.30;1.00;;;;;;2268187;61;2000;-88
2024/02/03 09:59:25;201060.00;0.67;347.75;99055.00;0.33;171.94;;;;;13.40;1.00;;;;;;2268270;61;891;-89
2024/02/03 10:01:52;169622.00;0.57;293.62;94664.00;0.32;164.36;;;;;13.80;1.00;;;;;;2268116;61;1346;-87
2024/02/03 10:04:18;42927.00;0.14;74.95;0.00;0.00;0.62;;;;;13.70;1.00;;;;;;2268197;61;1620;-88
2024/02/03 10:06:47;116831976.00;389.44;64596368.00;0.00;0.00;0.62;;;;;13.50;1.00;;;;;;2268982;61;1017;-89
2024/02/03 10:09:24;0.00;0.00;0.62;0.00;0.00;0.62;;;;;13.90;1.00;;;;;;2268841;61;1576;-88
2024/02/03 10:11:51;127945328.00;426.48;84860688.00;127712424.00;425.71;84397656.00;;;;;13.90;1.00;;;;;;2268948;61;1413;-88
2024/02/03 10:14:18;310473.00;1.03;535.92;87016.00;0.29;151.15;;;;;13.90;1.00;;;;;;2268795;61;1731;-88
2024/02/03 10:16:46;211442.00;0.70;365.62;84126.00;0.28;146.16;;;;;13.90;1.00;;;;;;2268824;61;2149;-87
2024/02/03 10:19:13;345666.00;1.15;596.41;130290.00;0.43;225.83;;;;;13.90;1.00;;;;;;2268817;61;1729;-90
2024/02/03 10:21:40;238507.00;0.80;412.18;87838.00;0.29;152.57;;;;;14.00;1.00;;;;;;2268887;61;1243;-89
2024/02/03 10:24:07;333524.00;1.11;575.54;118351.00;0.39;205.24;;;;;14.40;1.00;;;;;;2268828;61;1033;-89
2024/02/03 10:26:36;338444.00;1.13;584.00;91717.00;0.31;159.27;;;;;14.50;1.00;;;;;;2268796;61;927;-89
2024/02/03 10:29:03;407585.00;1.36;702.85;92354.00;0.31;160.37;;;;;14.00;1.00;;;;;;2268666;61;1711;-87
2024/02/03 10:31:30;117564728.00;391.88;65820520.00;92293.00;0.31;160.27;;;;;14.50;1.00;;;;;;2268734;61;1076;-89
2024/02/03 10:36:29;338848.00;1.13;584.69;87687.00;0.29;152.31;;;;;13.90;1.00;;;;;;2274969;61;1878;-89
2024/02/03 10:38:55;211248.00;0.70;365.28;104983.00;0.35;182.17;;;;;13.50;1.00;;;;;;2272726;61;1147;-89
2024/02/03 10:43:59;401266.00;1.34;691.98;103987.00;0.35;180.45;;;;;13.80;1.00;;;;;;2280732;40;3498;-90
2024/02/03 10:49:02;312908.00;1.04;540.11;91368.00;0.30;158.67;;;;;14.10;1.00;;;;;;2262866;61;1310;-91
2024/02/03 10:51:31;176053.00;0.59;304.69;79129.00;0.26;137.53;;;;;14.40;1.00;;;;;;2313810;40;3570;-88
2024/02/03 10:56:35;329831.00;1.10;569.20;88794.00;0.30;154.23;;;;;14.60;1.00;;;;;;2274695;61;1903;-88
2024/02/03 10:59:05;217956.00;0.73;376.83;87270.00;0.29;151.59;;;;;14.80;1.00;;;;;;2272600;61;1039;-89
2024/02/03 11:04:01;349273.00;1.16;602.61;76158.00;0.25;132.40;;;;;14.30;1.00;;;;;;2262417;61;1462;-88
2024/02/03 11:06:29;197408.00;0.66;341.46;91073.00;0.30;158.16;;;;;14.30;1.00;;;;;;2260716;61;1044;-89
2024/02/03 11:09:12;254713.00;0.85;440.06;85793.00;0.29;149.04;;;;;14.20;1.00;;;;;;2260752;61;937;-88
2024/02/03 11:11:40;290171.00;0.97;501.02;85883.00;0.29;149.20;;;;;14.60;1.00;;;;;;2260544;61;2362;-88
2024/02/03 11:14:14;307355.00;1.02;530.56;88702.00;0.30;154.07;;;;;14.80;1.00;;;;;;2260609;61;990;-87
2024/02/03 11:19:12;401794.00;1.34;692.89;86637.00;0.29;150.50;;;;;14.80;1.00;;;;;;2270485;61;1425;-89
2024/02/03 11:21:43;357578.00;1.19;616.89;85393.00;0.28;148.35;;;;;14.70;1.00;;;;;;2268631;61;1298;-88
2024/02/03 11:34:22;394208.00;1.31;679.85;0.00;0.00;0.62;;;;;15.10;1.00;;;;;;1664388;60;2291;-88
2024/02/03 11:36:49;133019.00;0.44;230.54;0.00;0.00;0.62;;;;;15.10;1.00;;;;;;2268521;61;2303;-87
2024/02/03 11:39:27;234529.00;0.78;405.34;0.00;0.00;0.62;;;;;15.10;1.00;;;;;;2268666;61;976;-89
2024/02/03 11:44:23;17571.00;0.06;31.06;0.00;0.00;0.62;;;;;14.30;1.00;;;;;;2266990;61;1196;-89
2024/02/03 11:46:50;0.00;0.00;0.62;0.00;0.00;0.62;;;;;13.70;1.00;;;;;;2265192;61;813;-89
2024/02/03 11:49:18;34561.00;0.12;60.48;0.00;0.00;0.62;;;;;13.90;1.00;;;;;;2293763;56;3772;-88
2024/02/03 11:51:45;24282.00;0.08;42.68;0.00;0.00;0.62;;;;;14.00;1.00;;;;;;2289392;41;3613;-89
2024/02/03 11:56:42;33539.00;0.11;58.71;0.00;0.00;0.62;;;;;13.80;1.00;;;;;;2269751;55;3653;-88
2024/02/03 11:59:10;337038.00;1.12;581.58;121556.00;0.41;210.77;;;;;13.90;1.00;;;;;;2272170;61;1666;-89
2024/02/03 12:06:35;190530.00;0.64;329.62;0.00;0.00;0.62;;;;;14.00;1.00;;;;;;2270696;61;1345;-90
2024/02/03 12:11:32;0.00;0.00;0.62;0.00;0.00;0.62;;;;;14.40;1.00;;;;;;2270208;61;1230;-90
2024/02/03 12:13:59;19749.00;0.07;34.84;0.00;0.00;0.62;;;;;14.50;1.00;;;;;;2268208;61;1373;-89
2024/02/03 12:18:56;89844.00;0.30;156.04;0.00;0.00;0.62;;;;;14.30;1.00;;;;;;2275377;55;3520;-87
2024/02/03 12:23:54;85950.00;0.29;149.31;0.00;0.00;0.62;;;;;14.30;1.00;;;;;;2262072;61;1529;-89
2024/02/03 12:26:21;18354.00;0.06;32.42;0.00;0.00;0.62;;;;;14.60;1.00;;;;;;2260352;61;921;-88
2024/02/03 12:28:48;0.00;0.00;0.62;0.00;0.00;0.62;;;;;14.10;1.00;;;;;;2268740;40;3568;-90